Time;durP1;ratioP1;P1;durP2;ratioP2;P2;SDS_P1;SDS_P2;PMS_P1;PMS_P2;Temp;Humidity;BMP_temperature;BMP_pressure;BME280_temperature;BME280_humidity;BME280_pressure;Samples;Min_cycle;Max_cycle;Signal;HPM_P1;HPM_P2
2022/03/11 00:02:02;;;;;;;;;12.25;10.25;;;;;21.21;35.75;100931.31;5061679;28;51565;-52
2022/03/11 00:04:27;;;;;;;;;12.00;10.50;;;;;21.20;35.89;100933.22;5069305;28;51196;-49
2022/03/11 00:06:52;;;;;;;;;12.25;10.50;;;;;21.19;35.75;100923.28;5062377;28;51869;-52
2022/03/11 00:09:17;;;;;;;;;12.25;10.25;;;;;21.17;35.44;100928.16;5060920;28;51072;-53
2022/03/11 00:11:43;;;;;;;;;13.75;13.00;;;;;21.16;35.76;100926.47;5069631;27;51120;-51
2022/03/11 00:14:08;;;;;;;;;15.75;10.25;;;;;21.15;35.27;100927.53;5059771;28;51120;-50
2022/03/11 00:16:34;;;;;;;;;12.75;11.50;;;;;21.12;35.48;100918.88;5079579;27;52935;-51
2022/03/11 00:18:59;;;;;;;;;11.50;11.50;;;;;21.11;35.70;100909.78;5066004;28;51132;-51
2022/03/11 00:21:25;;;;;;;;;11.00;11.00;;;;;21.09;35.77;100909.16;5066396;27;51128;-52
2022/03/11 00:23:50;;;;;;;;;11.50;9.25;;;;;21.08;35.52;100910.22;5063822;28;51351;-52
2022/03/11 00:26:16;;;;;;;;;11.50;9.25;;;;;21.07;35.36;100904.94;5062061;28;51814;-52
2022/03/11 00:28:41;;;;;;;;;11.25;9.25;;;;;21.06;35.69;100906.03;5069611;27;51231;-49
2022/03/11 00:31:06;;;;;;;;;12.25;11.00;;;;;21.03;35.75;100907.28;5061065;27;51229;-51
2022/03/11 00:33:32;;;;;;;;;10.75;9.50;;;;;21.01;35.31;100902.00;5066284;28;51145;-50
2022/03/11 00:35:58;;;;;;;;;13.75;12.25;;;;;21.01;35.66;100906.69;5065275;27;51259;-50
2022/03/11 00:38:24;;;;;;;;;13.50;12.50;;;;;20.99;35.81;100898.66;5057974;28;51485;-49
2022/03/11 00:40:51;;;;;;;;;13.00;11.50;;;;;20.98;35.17;100885.09;5063494;28;51117;-51
2022/03/11 00:43:17;;;;;;;;;11.00;11.00;;;;;20.97;35.59;100892.53;5060064;28;51029;-50
2022/03/11 00:45:43;;;;;;;;;14.25;12.00;;;;;20.95;35.56;100883.66;5059170;28;52032;-53
2022/03/11 00:48:09;;;;;;;;;13.00;10.50;;;;;20.94;35.29;100890.19;5065658;27;51000;-50
2022/03/11 00:50:34;;;;;;;;;9.50;8.00;;;;;20.93;35.19;100884.91;5060748;28;51755;-52
2022/03/11 00:52:59;;;;;;;;;11.00;10.25;;;;;20.92;35.16;100888.75;5066020;27;51066;-50
2022/03/11 00:55:26;;;;;;;;;12.25;9.00;;;;;20.89;35.67;100881.78;5060592;28;50957;-52
2022/03/11 00:57:52;;;;;;;;;10.00;9.00;;;;;20.89;35.49;100881.78;5057042;28;51262;-50
2022/03/11 01:00:17;;;;;;;;;14.00;10.75;;;;;20.89;35.07;100876.28;5063407;27;51212;-51
2022/03/11 01:02:43;;;;;;;;;9.50;9.50;;;;;20.87;35.23;100875.66;5061531;28;51226;-50
2022/03/11 01:05:09;;;;;;;;;10.75;10.50;;;;;20.87;35.45;100864.66;5064953;28;51113;-52
2022/03/11 01:07:35;;;;;;;;;13.00;10.50;;;;;20.87;35.56;100858.28;5065447;28;51337;-52
2022/03/11 01:10:01;;;;;;;;;8.50;8.50;;;;;20.84;35.66;100856.84;5065187;28;51159;-53
2022/03/11 01:12:26;;;;;;;;;10.50;10.50;;;;;20.83;35.22;100863.38;5058938;27;51228;-53
2022/03/11 01:14:52;;;;;;;;;11.50;11.50;;;;;20.82;35.18;100856.19;5063844;28;52046;-53
2022/03/11 01:17:17;;;;;;;;;10.00;9.50;;;;;20.80;35.57;100855.59;5060224;28;51244;-50
2022/03/11 01:19:42;;;;;;;;;13.75;12.00;;;;;20.81;35.53;100862.78;5057725;28;51455;-52
2022/03/11 01:22:08;;;;;;;;;12.50;11.50;;;;;20.79;35.20;100856.66;5060129;28;50966;-49
2022/03/11 01:24:33;;;;;;;;;13.00;11.25;;;;;20.78;35.32;100852.22;5062860;27;51248;-48
2022/03/11 01:26:59;;;;;;;;;7.75;7.75;;;;;20.79;35.20;100847.56;5069467;27;51109;-52
2022/03/11 01:29:24;;;;;;;;;9.25;8.00;;;;;20.77;35.17;100845.03;5064982;27;51250;-47
2022/03/11 01:31:50;;;;;;;;;10.00;10.00;;;;;20.77;35.24;100839.53;5064216;28;50930;-51
2022/03/11 01:34:16;;;;;;;;;9.00;9.00;;;;;20.75;35.54;100834.25;5058236;28;51003;-50
2022/03/11 01:36:41;;;;;;;;;8.75;8.75;;;;;20.75;35.47;100837.00;5065565;28;51279;-51
2022/03/11 01:39:06;;;;;;;;;8.25;6.75;;;;;20.74;35.40;100827.06;5061532;28;51174;-48
2022/03/11 01:41:32;;;;;;;;;11.75;9.75;;;;;20.73;35.09;100836.34;5064084;27;51017;-49
2022/03/11 01:44:03;;;;;;;;;10.00;10.00;;;;;20.72;35.46;100831.94;5067239;28;51063;-49
2022/03/11 01:46:29;;;;;;;;;12.75;12.00;;;;;20.71;35.45;100829.41;5060268;28;51288;-50
2022/03/11 01:48:59;;;;;;;;;10.25;10.00;;;;;20.70;35.13;100820.31;5065172;28;51208;-54
2022/03/11 01:51:25;;;;;;;;;10.00;9.50;;;;;20.70;35.50;100819.47;5067085;28;51233;-49
2022/03/11 01:53:52;;;;;;;;;11.00;8.50;;;;;20.68;35.32;100808.69;5058820;28;51727;-50
2022/03/11 01:56:18;;;;;;;;;10.00;9.75;;;;;20.67;35.05;100812.50;5064617;28;51105;-46
2022/03/11 01:58:49;;;;;;;;;9.75;8.50;;;;;20.67;35.22;100807.00;5060672;28;51045;-50
2022/03/11 02:01:14;;;;;;;;;9.50;9.50;;;;;20.67;35.30;100800.66;5069755;27;51205;-49
2022/03/11 02:03:40;;;;;;;;;9.00;7.75;;;;;20.66;35.12;100807.22;5064118;28;51027;-48
2022/03/11 02:06:07;;;;;;;;;8.25;7.50;;;;;20.65;35.42;100806.38;5062082;27;51152;-48
2022/03/11 02:08:34;;;;;;;;;8.75;8.75;;;;;20.64;35.51;100809.38;5056793;27;51200;-51
2022/03/11 02:11:00;;;;;;;;;10.50;10.25;;;;;20.63;35.51;100805.75;5069522;27;51252;-50
2022/03/11 02:13:25;;;;;;;;;9.75;9.75;;;;;20.62;35.17;100801.31;5062189;28;52071;-48
2022/03/11 02:15:51;;;;;;;;;9.50;9.50;;;;;20.62;35.55;100809.56;5063669;27;52602;-51
2022/03/11 02:18:17;;;;;;;;;14.00;8.00;;;;;20.61;35.20;100809.78;5065399;28;51157;-49
2022/03/11 02:20:43;;;;;;;;;13.25;10.25;;;;;20.59;35.54;100799.00;5060304;27;51222;-50
2022/03/11 02:23:11;;;;;;;;;7.25;7.25;;;;;20.60;35.50;100802.59;5062360;28;51755;-51
2022/03/11 02:25:40;;;;;;;;;7.50;6.75;;;;;20.58;35.25;100797.31;5061762;28;51059;-49
2022/03/11 02:28:05;;;;;;;;;11.00;10.25;;;;;20.58;35.53;100800.09;5065416;28;51156;-52
2022/03/11 02:30:30;;;;;;;;;12.00;10.50;;;;;20.57;35.21;100801.16;5063598;27;51020;-52
2022/03/11 02:32:56;;;;;;;;;7.00;7.00;;;;;20.57;35.07;100803.06;5064698;28;51114;-50
2022/03/11 02:35:21;;;;;;;;;9.00;8.00;;;;;20.56;34.97;100795.88;5067382;27;51166;-52
2022/03/11 02:37:46;;;;;;;;;9.75;9.75;;;;;20.55;35.32;100796.94;5070524;28;51088;-52
2022/03/11 02:40:13;;;;;;;;;10.00;9.50;;;;;20.55;35.57;100797.78;5062792;28;51145;-50
2022/03/11 02:42:38;;;;;;;;;11.00;11.00;;;;;20.54;35.24;100793.34;5063877;28;52385;-51
2022/03/11 02:45:05;;;;;;;;;10.00;10.00;;;;;20.53;35.56;100791.66;5064632;28;51119;-50
2022/03/11 02:47:31;;;;;;;;;8.00;8.00;;;;;20.53;35.26;100782.53;5065326;27;51231;-49
2022/03/11 02:49:56;;;;;;;;;10.00;9.75;;;;;20.51;35.43;100782.78;5066580;28;51201;-52
2022/03/11 02:52:22;;;;;;;;;13.25;11.50;;;;;20.51;35.19;100777.28;5061325;27;51715;-51
2022/03/11 02:54:50;;;;;;;;;10.25;8.25;;;;;20.49;35.13;100768.41;5070109;28;51163;-52
2022/03/11 02:57:16;;;;;;;;;10.75;9.00;;;;;20.49;35.25;100773.06;5065060;28;51122;-48
2022/03/11 02:59:45;;;;;;;;;9.00;7.75;;;;;20.48;35.38;100774.97;5062196;28;51389;-47
2022/03/11 03:02:11;;;;;;;;;8.25;7.50;;;;;20.46;35.33;100769.69;5066636;28;51779;-49
2022/03/11 03:04:36;;;;;;;;;8.00;8.00;;;;;20.46;35.47;100766.94;5065417;27;51115;-49
2022/03/11 03:07:02;;;;;;;;;8.25;8.25;;;;;20.46;35.51;100758.69;5066126;28;51185;-52
2022/03/11 03:09:28;;;;;;;;;7.25;7.25;;;;;20.44;35.46;100766.34;5067972;27;51251;-52
2022/03/11 03:11:53;;;;;;;;;10.25;8.75;;;;;20.44;35.51;100751.75;5065091;27;51951;-50
2022/03/11 03:14:19;;;;;;;;;9.00;8.00;;;;;20.43;35.16;100748.16;5065274;28;51944;-52
2022/03/11 03:16:44;;;;;;;;;9.50;9.50;;;;;20.43;35.34;100744.56;5064017;28;51148;-52
2022/03/11 03:19:10;;;;;;;;;10.00;10.00;;;;;20.41;35.59;100741.97;5064983;27;51091;-49
2022/03/11 03:21:36;;;;;;;;;9.25;9.25;;;;;20.41;35.27;100739.22;5067271;28;51095;-51
2022/03/11 03:24:01;;;;;;;;;6.75;6.75;;;;;20.41;35.01;100727.38;5062089;28;51446;-52
2022/03/11 03:26:26;;;;;;;;;9.00;9.00;;;;;20.41;35.56;100730.13;5060638;28;51112;-49
2022/03/11 03:28:52;;;;;;;;;11.00;9.25;;;;;20.39;35.49;100727.59;5064789;27;51110;-52
2022/03/11 03:31:19;;;;;;;;;11.75;8.50;;;;;20.40;35.48;100725.69;5064626;28;51797;-53
2022/03/11 03:33:44;;;;;;;;;8.75;8.00;;;;;20.38;35.52;100717.66;5062295;28;51211;-51
2022/03/11 03:36:10;;;;;;;;;9.75;7.75;;;;;20.38;35.54;100720.41;5067738;28;51286;-51
2022/03/11 03:38:35;;;;;;;;;10.50;6.50;;;;;20.39;35.16;100729.50;5071473;28;51376;-52
2022/03/11 03:41:00;;;;;;;;;9.75;8.50;;;;;20.37;35.42;100726.16;5065330;27;52145;-51
2022/03/11 03:43:26;;;;;;;;;10.00;7.25;;;;;20.36;35.28;100722.56;5061152;28;51079;-51
2022/03/11 03:45:51;;;;;;;;;8.00;8.00;;;;;20.36;35.37;100727.22;5066675;28;51093;-51
2022/03/11 03:48:16;;;;;;;;;7.75;6.00;;;;;20.35;35.29;100720.88;5063724;27;51159;-49
2022/03/11 03:50:42;;;;;;;;;8.75;7.00;;;;;20.34;35.28;100721.94;5073535;27;51966;-51
2022/03/11 03:53:07;;;;;;;;;7.75;7.00;;;;;20.34;35.13;100721.94;5059660;27;50922;-51
2022/03/11 03:55:32;;;;;;;;;7.25;7.25;;;;;20.33;35.72;100712.00;5067506;28;51139;-51
2022/03/11 03:57:58;;;;;;;;;8.25;8.25;;;;;20.34;35.22;100710.09;5062536;27;51361;-51
2022/03/11 04:00:23;;;;;;;;;8.25;8.00;;;;;20.33;35.68;100708.41;5062017;28;51706;-52
2022/03/11 04:02:50;;;;;;;;;9.25;8.25;;;;;20.33;35.11;100705.66;5061997;28;51032;-49
2022/03/11 04:05:17;;;;;;;;;10.25;10.25;;;;;20.32;35.55;100698.44;5065176;28;51195;-52
2022/03/11 04:07:44;;;;;;;;;5.25;5.25;;;;;20.30;35.22;100701.44;5059818;28;51294;-49
2022/03/11 04:10:11;;;;;;;;;7.50;6.50;;;;;20.30;35.60;100704.19;5069292;28;53046;-50
2022/03/11 04:12:37;;;;;;;;;8.75;8.75;;;;;20.29;35.43;100702.50;5061357;28;51048;-50
2022/03/11 04:15:02;;;;;;;;;8.00;8.00;;;;;20.29;35.80;100701.66;5067035;27;51491;-51
2022/03/11 04:17:28;;;;;;;;;9.75;7.50;;;;;20.29;35.71;100704.41;5059346;28;51097;-53
2022/03/11 04:19:53;;;;;;;;;9.50;7.75;;;;;20.27;35.41;100693.63;5065089;27;51970;-53
2022/03/11 04:22:18;;;;;;;;;4.00;4.00;;;;;20.28;35.16;100698.06;5057950;28;51226;-51
2022/03/11 04:24:44;;;;;;;;;8.00;8.00;;;;;20.27;35.17;100690.88;5069265;28;51217;-49
2022/03/11 04:27:09;;;;;;;;;5.00;5.00;;;;;20.26;35.17;100689.19;5060096;28;51192;-53
2022/03/11 04:29:36;;;;;;;;;9.25;6.75;;;;;20.25;35.11;100683.94;5065982;27;51671;-49
2022/03/11 04:32:02;;;;;;;;;9.00;9.00;;;;;20.25;35.64;100692.19;5065156;27;51567;-50
2022/03/11 04:34:27;;;;;;;;;7.50;7.00;;;;;20.25;35.59;100695.78;5059440;27;51206;-51
2022/03/11 04:36:53;;;;;;;;;7.75;7.75;;;;;20.25;35.49;100700.44;5070952;28;51103;-52
2022/03/11 04:39:19;;;;;;;;;7.75;7.75;;;;;20.22;35.35;100690.72;5059680;28;51146;-51
2022/03/11 04:41:44;;;;;;;;;9.50;7.25;;;;;20.23;35.81;100691.56;5061285;28;51079;-51
2022/03/11 04:44:10;;;;;;;;;6.75;6.75;;;;;20.22;35.31;100689.84;5077849;27;51160;-49
2022/03/11 04:46:35;;;;;;;;;7.50;5.50;;;;;20.21;35.34;100697.28;5064227;28;51153;-54
2022/03/11 04:49:01;;;;;;;;;9.50;9.00;;;;;20.21;35.82;100699.19;5060326;28;51912;-49
2022/03/11 04:51:26;;;;;;;;;7.75;7.50;;;;;20.19;35.59;100700.25;5067490;27;51188;-51
2022/03/11 04:53:52;;;;;;;;;6.75;6.50;;;;;20.21;35.45;100696.44;5057836;28;51054;-52
2022/03/11 04:56:17;;;;;;;;;7.75;7.75;;;;;20.19;35.46;100689.25;5060503;27;51052;-51
2022/03/11 04:58:43;;;;;;;;;9.25;8.75;;;;;20.19;35.45;100689.25;5063302;27;51808;-51
2022/03/11 05:01:08;;;;;;;;;5.25;5.25;;;;;20.17;35.30;100680.38;5072154;28;51228;-51
2022/03/11 05:03:34;;;;;;;;;7.75;6.25;;;;;20.18;35.52;100683.97;5062265;27;51076;-51
2022/03/11 05:06:00;;;;;;;;;6.00;6.00;;;;;20.17;35.79;100676.78;5060130;28;52554;-52
2022/03/11 05:08:25;;;;;;;;;6.25;6.25;;;;;20.17;35.51;100687.78;5059144;27;52442;-51
2022/03/11 05:10:51;;;;;;;;;7.00;6.00;;;;;20.16;35.37;100684.19;5060844;27;51151;-51
2022/03/11 05:13:17;;;;;;;;;6.25;6.25;;;;;20.15;35.57;100684.44;5067956;27;51109;-48
2022/03/11 05:15:42;;;;;;;;;13.25;8.00;;;;;20.14;35.37;100680.84;5066802;27;51081;-52
2022/03/11 05:18:08;;;;;;;;;8.25;7.75;;;;;20.14;35.57;100672.59;5067630;27;51938;-52
2022/03/11 05:20:34;;;;;;;;;7.25;7.25;;;;;20.13;35.47;100662.66;5066294;28;51069;-48
2022/03/11 05:22:59;;;;;;;;;4.50;4.50;;;;;20.12;35.54;100671.97;5063120;27;51249;-52
2022/03/11 05:25:25;;;;;;;;;7.00;6.00;;;;;20.12;35.47;100663.72;5059168;28;51187;-50
2022/03/11 05:27:51;;;;;;;;;7.00;7.00;;;;;20.12;35.62;100660.13;5060049;28;51062;-48
2022/03/11 05:30:17;;;;;;;;;7.25;6.75;;;;;20.11;35.81;100658.44;5059488;27;51014;-50
2022/03/11 05:32:44;;;;;;;;;6.00;6.00;;;;;20.11;35.39;100661.19;5072190;28;51169;-51
2022/03/11 05:35:11;;;;;;;;;7.00;7.00;;;;;20.11;35.27;100662.06;5057588;28;51270;-50
2022/03/11 05:37:36;;;;;;;;;7.50;6.25;;;;;20.10;35.45;100651.25;5062611;28;51763;-52
2022/03/11 05:40:02;;;;;;;;;5.00;5.00;;;;;20.10;35.58;100651.25;5066621;28;51433;-52
2022/03/11 05:42:28;;;;;;;;;11.25;9.75;;;;;20.09;35.51;100641.31;5069573;28;51133;-50
2022/03/11 05:44:53;;;;;;;;;7.75;6.50;;;;;20.08;35.36;100642.38;5056290;28;51068;-51
2022/03/11 05:47:19;;;;;;;;;6.50;6.50;;;;;20.09;35.81;100644.91;5063481;27;51797;-50
2022/03/11 05:49:44;;;;;;;;;6.50;6.50;;;;;20.07;35.71;100641.53;5070552;27;51038;-51
2022/03/11 05:52:09;;;;;;;;;7.00;6.00;;;;;20.07;35.42;100641.53;5062507;28;51293;-48
2022/03/11 05:54:35;;;;;;;;;6.25;5.75;;;;;20.07;35.39;100638.78;5066431;27;51103;-49
2022/03/11 05:57:01;;;;;;;;;7.25;7.00;;;;;20.07;35.47;100649.78;5062494;28;52688;-47
2022/03/11 05:59:26;;;;;;;;;7.75;7.25;;;;;20.06;35.79;100645.38;5068270;28;51049;-51
2022/03/11 06:01:51;;;;;;;;;7.00;6.00;;;;;20.06;35.85;100653.63;5058752;28;51176;-50
2022/03/11 06:04:17;;;;;;;;;9.25;6.00;;;;;20.06;35.30;100656.38;5067832;28;51337;-51
2022/03/11 06:06:43;;;;;;;;;8.50;7.50;;;;;20.05;35.48;100653.84;5070800;28;51131;-50
2022/03/11 06:09:08;;;;;;;;;9.25;8.75;;;;;20.03;34.97;100655.97;5071426;27;51014;-53
2022/03/11 06:11:35;;;;;;;;;9.75;8.00;;;;;19.99;34.95;100647.31;5066617;27;51081;-52
2022/03/11 06:14:00;;;;;;;;;8.25;8.25;;;;;19.97;35.03;100654.13;5069555;28;52321;-51
2022/03/11 06:16:26;;;;;;;;;8.00;7.00;;;;;19.94;35.27;100658.16;5067412;27;51996;-52
2022/03/11 06:18:51;;;;;;;;;10.50;9.00;;;;;19.91;35.08;100664.13;5059479;28;51133;-52
2022/03/11 06:21:17;;;;;;;;;7.50;6.75;;;;;19.86;34.85;100655.66;5066817;28;51229;-52
2022/03/11 06:23:42;;;;;;;;;11.50;8.00;;;;;19.84;34.89;100652.31;5067181;27;51070;-51
2022/03/11 06:26:07;;;;;;;;;13.00;10.50;;;;;19.80;34.82;100651.94;5067608;27;51135;-51
2022/03/11 06:28:33;;;;;;;;;10.00;9.00;;;;;19.77;34.68;100646.00;5067109;27;51213;-49
2022/03/11 06:30:58;;;;;;;;;13.50;8.50;;;;;19.74;35.09;100646.47;5067129;27;51177;-51
2022/03/11 06:33:23;;;;;;;;;10.00;9.50;;;;;19.71;34.96;100641.41;5071768;28;51116;-51
2022/03/11 06:35:50;;;;;;;;;10.25;8.50;;;;;19.68;34.62;100652.84;5070318;27;51601;-51
2022/03/11 06:38:16;;;;;;;;;12.00;10.75;;;;;19.62;35.56;100629.00;5074501;27;51134;-52
2022/03/11 06:40:42;;;;;;;;;14.00;10.25;;;;;19.57;35.61;100627.75;5072963;27;51031;-50
2022/03/11 06:43:07;;;;;;;;;11.00;9.25;;;;;19.58;35.90;100634.09;5069651;27;51377;-53
2022/03/11 06:45:33;;;;;;;;;8.25;7.00;;;;;19.61;35.83;100633.66;5070239;27;51733;-53
2022/03/11 06:47:58;;;;;;;;;5.25;5.25;;;;;19.67;36.13;100629.16;5063602;28;51682;-57
2022/03/11 06:50:24;;;;;;;;;7.25;7.00;;;;;19.75;36.27;100631.66;5079289;27;51181;-53
2022/03/11 06:52:49;;;;;;;;;10.25;8.50;;;;;19.83;36.50;100623.97;5068767;27;51258;-51
2022/03/11 06:55:15;;;;;;;;;6.25;5.75;;;;;19.94;36.52;100635.31;5078479;27;51121;-51
2022/03/11 06:57:40;;;;;;;;;8.00;5.00;;;;;20.03;36.87;100623.81;5074717;27;51140;-49
2022/03/11 07:00:08;;;;;;;;;6.00;5.50;;;;;20.12;36.80;100616.13;5073656;27;51250;-51
2022/03/11 07:02:36;;;;;;;;;8.50;7.00;;;;;20.21;36.71;100622.16;5064976;27;51389;-53
2022/03/11 07:05:02;;;;;;;;;5.50;5.50;;;;;20.29;36.89;100616.38;5071470;27;51842;-51
2022/03/11 07:07:29;;;;;;;;;6.00;3.00;;;;;20.35;36.85;100619.09;5072371;27;51225;-47
2022/03/11 07:09:54;;;;;;;;;4.00;4.00;;;;;20.42;37.02;100614.38;5068100;27;51280;-50
2022/03/11 07:12:20;;;;;;;;;7.50;7.50;;;;;20.50;37.01;100623.41;5068974;28;50977;-52
2022/03/11 07:14:45;;;;;;;;;5.00;5.00;;;;;20.56;36.99;100622.50;5066478;27;51743;-50
2022/03/11 07:17:10;;;;;;;;;6.00;5.00;;;;;20.61;37.44;100619.91;5058428;28;51357;-50
2022/03/11 07:19:36;;;;;;;;;6.50;5.00;;;;;20.68;36.97;100612.41;5063226;28;51296;-51
2022/03/11 07:22:04;;;;;;;;;6.25;5.25;;;;;20.73;37.65;100623.56;5068537;27;51207;-50
2022/03/11 07:24:30;;;;;;;;;6.25;5.50;;;;;20.79;37.48;100617.16;5068643;27;51104;-53
2022/03/11 07:26:56;;;;;;;;;6.50;6.50;;;;;20.84;37.91;100608.19;5066115;27;51538;-51
2022/03/11 07:29:21;;;;;;;;;6.00;5.00;;;;;20.87;37.71;100607.75;5065479;27;51214;-51
2022/03/11 07:31:47;;;;;;;;;6.25;4.50;;;;;20.86;37.76;100600.56;5066336;27;51018;-50
2022/03/11 07:34:12;;;;;;;;;3.00;3.00;;;;;20.84;38.27;100611.81;5065088;27;52031;-52
2022/03/11 07:36:38;;;;;;;;;6.75;5.00;;;;;20.83;37.99;100609.25;5059700;28;51499;-50
2022/03/11 07:39:05;;;;;;;;;4.00;4.00;;;;;20.81;38.24;100605.91;5062026;28;51234;-51
2022/03/11 07:41:32;;;;;;;;;5.00;5.00;;;;;20.78;38.38;100600.88;5063927;28;51454;-51
2022/03/11 07:43:58;;;;;;;;;5.25;5.25;;;;;20.78;38.85;100603.63;5056592;28;51917;-51
2022/03/11 07:46:23;;;;;;;;;5.50;5.00;;;;;20.77;38.57;100601.94;5060345;27;51099;-49
2022/03/11 07:48:50;;;;;;;;;9.00;5.00;;;;;20.74;39.03;100601.34;5068539;27;51355;-50
2022/03/11 07:51:16;;;;;;;;;7.00;7.00;;;;;20.74;38.66;100593.09;5076317;27;51122;-52
2022/03/11 07:53:42;;;;;;;;;9.00;8.00;;;;;20.70;38.97;100591.84;5075571;27;51077;-50
2022/03/11 07:56:07;;;;;;;;;7.75;6.00;;;;;20.67;38.78;100597.81;5076080;27;51293;-50
2022/03/11 07:58:33;;;;;;;;;9.50;7.00;;;;;20.65;38.77;100583.44;5076624;27;51059;-52
2022/03/11 08:00:59;;;;;;;;;6.50;5.75;;;;;20.62;38.65;100580.28;5076694;27;50878;-51
2022/03/11 08:03:24;;;;;;;;;9.50;6.25;;;;;20.59;38.77;100584.34;5076139;27;51823;-51
2022/03/11 08:05:50;;;;;;;;;6.25;6.00;;;;;20.57;38.70;100589.25;5076494;27;50992;-51
2022/03/11 08:08:16;;;;;;;;;9.50;7.50;;;;;20.53;38.54;100577.03;5076483;27;51187;-50
2022/03/11 08:10:42;;;;;;;;;9.25;8.00;;;;;20.52;38.83;100582.72;5076536;27;51068;-52
2022/03/11 08:13:08;;;;;;;;;7.75;6.00;;;;;20.48;38.60;100582.38;5076083;28;51028;-52
2022/03/11 08:15:34;;;;;;;;;8.00;6.00;;;;;20.44;38.84;100570.16;5076217;28;51139;-52
2022/03/11 08:18:00;;;;;;;;;5.75;5.25;;;;;20.43;39.08;100582.22;5075623;27;51134;-52
2022/03/11 08:20:26;;;;;;;;;6.00;6.00;;;;;20.39;38.46;100569.94;5076293;27;51206;-51
2022/03/11 08:22:51;;;;;;;;;8.75;7.00;;;;;20.38;38.49;100576.50;5076044;27;51004;-51
2022/03/11 08:25:18;;;;;;;;;7.00;7.00;;;;;20.35;39.11;100571.47;5076153;27;51101;-53
2022/03/11 08:27:44;;;;;;;;;6.00;5.25;;;;;20.33;38.62;100565.38;5076004;27;51007;-52
2022/03/11 08:30:10;;;;;;;;;9.75;6.25;;;;;20.31;38.55;100561.97;5073262;28;51315;-53
2022/03/11 08:32:37;;;;;;;;;5.25;5.25;;;;;20.29;38.72;100567.72;5075289;27;53385;-53
2022/03/11 08:35:03;;;;;;;;;6.75;5.50;;;;;20.27;39.04;100560.75;5076441;27;51437;-52
2022/03/11 08:37:28;;;;;;;;;5.25;5.25;;;;;20.26;38.71;100551.69;5074886;28;51123;-55
2022/03/11 08:39:54;;;;;;;;;6.75;5.25;;;;;20.27;38.45;100555.25;5076049;27;51164;-52
2022/03/11 08:42:19;;;;;;;;;7.50;5.00;;;;;20.23;38.84;100543.88;5076007;27;52133;-51
2022/03/11 08:44:45;;;;;;;;;6.50;5.50;;;;;20.23;39.13;100545.81;5075887;27;51203;-52
2022/03/11 08:47:10;;;;;;;;;6.75;6.75;;;;;20.22;38.97;100546.84;5075544;27;51069;-50
2022/03/11 08:49:36;;;;;;;;;7.00;6.00;;;;;20.21;38.34;100545.16;5076322;27;51070;-55
2022/03/11 08:52:02;;;;;;;;;5.50;5.50;;;;;20.18;38.73;100541.81;5075268;27;51786;-48
2022/03/11 08:54:27;;;;;;;;;5.00;4.75;;;;;20.19;38.69;100539.88;5075137;27;51014;-48
2022/03/11 08:56:53;;;;;;;;;4.50;4.50;;;;;20.18;39.00;100535.47;5074673;27;51098;-52
2022/03/11 08:59:18;;;;;;;;;5.00;4.50;;;;;20.18;38.72;100538.22;5074876;28;50911;-49
2022/03/11 09:01:44;;;;;;;;;6.00;4.75;;;;;20.16;38.79;100541.19;5075144;27;51265;-51
2022/03/11 09:04:09;;;;;;;;;4.75;4.00;;;;;20.16;38.72;100538.44;5075588;27;51026;-51
2022/03/11 09:06:35;;;;;;;;;7.50;5.25;;;;;20.14;38.83;100532.34;5061394;27;51116;-50
2022/03/11 09:09:00;;;;;;;;;6.25;4.75;;;;;20.15;39.08;100535.94;5065471;27;51221;-51
2022/03/11 09:11:25;;;;;;;;;4.00;4.00;;;;;20.16;38.64;100543.94;5061151;28;51195;-51
2022/03/11 09:13:51;;;;;;;;;5.50;5.50;;;;;20.16;38.95;100524.69;5057086;28;51133;-49
2022/03/11 09:16:16;;;;;;;;;4.00;3.75;;;;;20.17;38.90;100515.38;5058048;28;51028;-52
2022/03/11 09:18:41;;;;;;;;;6.00;3.00;;;;;20.17;38.51;100509.88;5070358;28;51236;-51
2022/03/11 09:21:07;;;;;;;;;4.75;3.75;;;;;20.17;39.14;100520.88;5059092;28;51801;-49
2022/03/11 09:23:33;;;;;;;;;4.00;4.00;;;;;20.18;39.07;100513.47;5059972;27;51266;-52
2022/03/11 09:25:58;;;;;;;;;5.50;5.50;;;;;20.17;38.79;100512.63;5062728;27;51271;-51
2022/03/11 09:28:24;;;;;;;;;6.75;4.75;;;;;20.18;38.88;100513.47;5058963;28;51413;-48
2022/03/11 09:30:49;;;;;;;;;5.50;2.75;;;;;20.19;39.50;100506.88;5074217;27;51669;-51
2022/03/11 09:33:15;;;;;;;;;5.50;5.50;;;;;20.22;39.11;100506.47;5070316;27;51174;-53
2022/03/11 09:35:41;;;;;;;;;4.25;3.50;;;;;20.23;38.97;100501.78;5061526;27;51377;-56
2022/03/11 09:38:06;;;;;;;;;5.50;4.00;;;;;20.24;39.22;100501.56;5061366;27;51397;-52
2022/03/11 09:40:33;;;;;;;;;4.00;4.00;;;;;20.23;39.47;100513.63;5062671;27;51916;-51
2022/03/11 09:43:00;;;;;;;;;4.75;4.75;;;;;20.25;39.60;100516.16;5067295;27;51980;-51
2022/03/11 09:45:26;;;;;;;;;4.75;3.25;;;;;20.27;39.37;100516.75;5061407;27;51033;-53
2022/03/11 09:47:53;;;;;;;;;3.75;3.75;;;;;20.27;39.22;100505.75;5068511;28;51291;-49
2022/03/11 09:50:19;;;;;;;;;7.25;2.75;;;;;20.27;39.56;100494.75;5064099;27;53501;-48
2022/03/11 09:52:47;;;;;;;;;5.50;4.00;;;;;20.27;39.12;100498.34;5061775;27;51063;-51
2022/03/11 09:55:13;;;;;;;;;4.00;4.00;;;;;20.26;39.61;100491.16;5062693;27;51163;-51
2022/03/11 09:57:38;;;;;;;;;4.25;4.00;;;;;20.27;39.57;100492.00;5064396;27;51265;-51
2022/03/11 10:00:05;;;;;;;;;3.00;3.00;;;;;20.25;39.29;100495.00;5060417;28;52560;-51
2022/03/11 10:02:31;;;;;;;;;4.00;3.00;;;;;20.25;39.57;100499.66;5059013;27;51268;-52
2022/03/11 10:04:57;;;;;;;;;5.00;3.50;;;;;20.25;39.41;100485.91;5064008;28;51350;-52
2022/03/11 10:07:27;;;;;;;;;0.75;0.00;;;;;20.25;39.73;100483.16;5064458;28;51169;-53
2022/03/11 10:09:54;;;;;;;;;4.75;3.25;;;;;20.24;39.17;100485.06;5059792;27;51127;-52
2022/03/11 10:12:21;;;;;;;;;3.25;2.00;;;;;20.25;39.70;100466.66;5062590;27;52879;-51
2022/03/11 10:14:55;;;;;;;;;4.50;4.25;;;;;20.24;39.25;100434.72;5068098;27;51180;-52
2022/03/11 10:17:21;;;;;;;;;4.00;3.00;;;;;20.23;39.36;100450.38;5059467;27;51075;-50
2022/03/11 10:20:02;;;;;;;;;3.50;2.25;;;;;20.23;39.68;100460.53;5063919;28;51242;-51
2022/03/11 10:22:29;;;;;;;;;3.00;3.00;;;;;20.23;39.82;100455.88;5060874;27;51525;-53
2022/03/11 10:24:55;;;;;;;;;3.00;3.00;;;;;20.22;39.52;100453.34;5062269;27;51260;-54
2022/03/11 10:27:23;;;;;;;;;3.25;3.25;;;;;20.22;39.71;100459.69;5066744;27;51330;-53
2022/03/11 10:29:50;;;;;;;;;5.25;4.00;;;;;20.24;40.01;100459.47;5060107;27;52709;-50
2022/03/11 10:32:22;;;;;;;;;5.00;3.00;;;;;20.24;39.73;100460.31;5060235;27;51415;-52
2022/03/11 10:34:47;;;;;;;;;4.00;4.00;;;;;20.26;40.14;100462.81;5063095;28;51265;-49
2022/03/11 10:37:14;;;;;;;;;4.75;3.25;;;;;20.26;39.81;100460.06;5060262;28;51349;-53
2022/03/11 10:39:45;;;;;;;;;3.50;3.00;;;;;20.25;40.17;100448.22;5062966;27;51819;-52
2022/03/11 10:42:25;;;;;;;;;4.50;2.75;;;;;20.24;39.73;100465.81;5061580;27;50993;-52
2022/03/11 10:45:06;;;;;;;;;3.00;3.00;;;;;20.24;39.78;100495.22;5068197;27;51184;-53
2022/03/11 10:47:39;;;;;;;;;4.75;3.25;;;;;20.23;40.00;100494.38;5063386;28;51096;-51
2022/03/11 10:50:07;;;;;;;;;4.00;3.25;;;;;20.23;40.14;100486.13;5075524;27;51002;-52
2022/03/11 10:52:37;;;;;;;;;5.50;4.00;;;;;20.23;40.03;100479.78;5067344;27;51313;-51
2022/03/11 10:55:28;;;;;;;;;4.00;3.00;;;;;20.23;39.87;100444.03;5063575;27;51142;-51
2022/03/11 10:57:59;;;;;;;;;2.25;2.00;;;;;20.22;40.16;100456.09;5068967;28;51391;-52
2022/03/11 11:00:34;;;;;;;;;3.50;3.00;;;;;20.22;40.08;100465.19;5061395;27;51077;-53
2022/03/11 11:03:04;;;;;;;;;2.00;2.00;;;;;20.21;40.08;100473.66;5062926;28;52745;-48
2022/03/11 11:05:30;;;;;;;;;4.75;3.75;;;;;20.20;39.95;100486.56;5065748;28;51208;-51
2022/03/11 11:07:58;;;;;;;;;3.00;3.00;;;;;20.22;39.83;100506.47;5069479;27;51403;-50
2022/03/11 11:10:24;;;;;;;;;2.75;2.00;;;;;20.27;39.68;100501.09;5074135;27;51094;-51
2022/03/11 11:12:51;;;;;;;;;3.00;2.25;;;;;20.35;40.09;100497.22;5062030;27;51208;-52
2022/03/11 11:15:17;;;;;;;;;2.75;2.00;;;;;20.43;39.77;100495.03;5064993;27;51168;-53
2022/03/11 11:17:51;;;;;;;;;3.00;2.00;;;;;20.53;40.13;100486.22;5065658;27;51231;-54